Time;durP1;ratioP1;P1;durP2;ratioP2;P2;SDS_P1;SDS_P2;PMS_P1;PMS_P2;Temp;Humidity;BMP_temperature;BMP_pressure;BME280_temperature;BME280_humidity;BME280_pressure;Samples;Min_cycle;Max_cycle;Signal;HPM_P1;HPM_P2
2022/10/01 00:01:42;;;;;;;10.05;5.68;;;;;;;13.80;100.00;97942.63;5096936;28;20457;-80
2022/10/01 00:04:07;;;;;;;8.52;5.28;;;;;;;13.81;100.00;97951.56;5114793;28;20447;-80
2022/10/01 00:06:35;;;;;;;8.57;4.97;;;;;;;13.74;100.00;97953.78;5113835;28;20024;-80
2022/10/01 00:09:01;;;;;;;10.07;5.10;;;;;;;13.60;100.00;97932.34;5096550;28;20449;-78
2022/10/01 00:11:27;;;;;;;7.28;4.90;;;;;;;13.71;100.00;97950.44;5096659;28;20028;-80
2022/10/01 00:13:53;;;;;;;12.15;5.20;;;;;;;13.72;100.00;97949.50;5113698;28;20043;-80
2022/10/01 00:16:24;;;;;;;8.80;5.22;;;;;;;13.69;100.00;97949.69;5113332;28;20593;-80
2022/10/01 00:18:52;;;;;;;7.65;5.00;;;;;;;13.72;100.00;97953.00;5113198;28;20034;-79
2022/10/01 00:21:20;;;;;;;8.20;5.07;;;;;;;13.68;100.00;97939.91;5113575;28;20088;-80
2022/10/01 00:23:47;;;;;;;8.50;5.40;;;;;;;13.76;100.00;97950.97;5113510;28;20059;-80
2022/10/01 00:26:20;;;;;;;10.57;5.70;;;;;;;13.75;100.00;97943.91;5112612;28;20035;-79
2022/10/01 00:28:47;;;;;;;8.77;4.63;;;;;;;13.73;100.00;97933.25;5112833;28;20473;-80
2022/10/01 00:31:14;;;;;;;6.57;4.90;;;;;;;13.68;100.00;97923.78;5112906;28;20046;-80
2022/10/01 00:33:39;;;;;;;10.20;4.90;;;;;;;13.62;100.00;97925.06;5114490;28;20495;-80
2022/10/01 00:36:06;;;;;;;7.85;4.45;;;;;;;13.60;100.00;97915.38;5113089;28;20031;-79
2022/10/01 00:38:33;;;;;;;9.65;4.40;;;;;;;13.62;100.00;97921.50;5096312;28;20415;-79
2022/10/01 00:40:59;;;;;;;13.48;5.15;;;;;;;13.61;100.00;97914.38;5113231;28;20038;-79
2022/10/01 00:43:33;;;;;;;5.03;4.20;;;;;;;13.60;100.00;97921.59;5112992;28;20410;-79
2022/10/01 00:46:11;;;;;;;17.58;4.68;;;;;;;13.57;100.00;97917.28;5095852;28;20506;-79
2022/10/01 00:48:46;;;;;;;9.13;4.60;;;;;;;13.64;100.00;97922.25;5114046;28;20482;-79
2022/10/01 00:51:12;;;;;;;7.15;4.55;;;;;;;13.61;100.00;97922.47;5111567;28;20096;-80
2022/10/01 00:53:39;;;;;;;10.85;4.53;;;;;;;13.56;100.00;97920.97;5112674;28;20032;-79
2022/10/01 00:56:06;;;;;;;5.25;4.18;;;;;;;13.58;100.00;97923.53;5112483;28;20102;-79
2022/10/01 00:58:32;;;;;;;9.10;4.57;;;;;;;13.57;100.00;97929.88;5095850;28;20106;-79
2022/10/01 01:00:58;;;;;;;6.47;4.00;;;;;;;13.55;100.00;97927.28;5112507;28;20951;-80
2022/10/01 01:03:24;;;;;;;5.20;4.35;;;;;;;13.57;100.00;97919.97;5095173;28;20496;-80
2022/10/01 01:05:49;;;;;;;8.77;5.07;;;;;;;13.51;100.00;97915.03;5112362;28;20024;-79
2022/10/01 01:08:15;;;;;;;7.85;4.78;;;;;;;13.52;100.00;97919.44;5112461;28;20089;-80
2022/10/01 01:10:55;;;;;;;8.05;4.78;;;;;;;13.55;100.00;97929.97;5112073;28;20571;-79
2022/10/01 01:13:22;;;;;;;9.25;4.93;;;;;;;13.46;100.00;97930.59;5112410;28;20464;-80
2022/10/01 01:16:12;;;;;;;12.25;4.60;;;;;;;13.40;100.00;97941.78;5095018;28;20027;-79
2022/10/01 01:19:12;;;;;;;8.98;5.20;;;;;;;13.28;100.00;97942.59;5085403;28;20046;-80
2022/10/01 01:21:40;;;;;;;13.43;5.10;;;;;;;13.24;100.00;97940.19;5112456;28;20430;-79
2022/10/01 01:24:09;;;;;;;8.70;5.10;;;;;;;13.22;100.00;97937.63;5113385;28;20023;-80
2022/10/01 01:26:50;;;;;;;10.85;5.53;;;;;;;13.09;100.00;97930.47;5113341;28;20036;-80
2022/10/01 01:29:31;;;;;;;10.00;5.47;;;;;;;13.03;100.00;97937.06;5123866;27;20055;-79
2022/10/01 01:32:01;;;;;;;7.80;5.32;;;;;;;13.04;100.00;97941.50;5098266;27;20027;-80
2022/10/01 01:34:29;;;;;;;8.23;5.13;;;;;;;13.05;100.00;97951.25;5115375;27;20501;-79
2022/10/01 01:37:04;;;;;;;8.30;4.82;;;;;;;13.03;100.00;97934.38;5115188;27;20471;-79
2022/10/01 01:39:31;;;;;;;12.48;5.85;;;;;;;12.95;100.00;97929.50;5114999;27;20516;-80
2022/10/01 01:42:02;;;;;;;9.25;5.32;;;;;;;12.96;100.00;97927.69;5097796;27;20402;-79
2022/10/01 01:44:32;;;;;;;11.25;5.35;;;;;;;12.94;100.00;97932.31;5115278;27;20069;-79
2022/10/01 01:46:58;;;;;;;13.48;5.45;;;;;;;12.90;100.00;97936.13;5114841;27;20475;-79
2022/10/01 01:49:24;;;;;;;11.35;6.20;;;;;;;12.84;100.00;97936.53;5115684;27;20098;-79
2022/10/01 01:51:55;;;;;;;10.35;5.20;;;;;;;12.86;100.00;97937.28;5114722;27;20069;-78
2022/10/01 01:54:20;;;;;;;12.07;5.90;;;;;;;12.86;100.00;97940.84;5114916;27;20026;-80
2022/10/01 01:56:48;;;;;;;9.00;6.35;;;;;;;12.83;100.00;97935.66;5115031;27;20019;-80
2022/10/01 01:59:17;;;;;;;11.35;6.70;;;;;;;12.80;100.00;97940.38;5097588;27;20019;-79
2022/10/01 02:01:43;;;;;;;10.82;5.95;;;;;;;12.78;100.00;97942.31;5114951;27;20034;-80
2022/10/01 02:04:23;;;;;;;16.77;7.53;;;;;;;12.76;100.00;97941.56;5114633;27;20102;-79
2022/10/01 02:07:14;;;;;;;8.98;6.40;;;;;;;12.76;100.00;97954.97;5128721;27;20048;-80
2022/10/01 02:09:46;;;;;;;13.15;6.90;;;;;;;12.72;100.00;97954.31;5113873;27;20038;-81
2022/10/01 02:12:36;;;;;;;10.77;6.80;;;;;;;12.70;100.00;97953.56;5114416;27;20039;-80
2022/10/01 02:15:08;;;;;;;13.63;6.68;;;;;;;12.71;100.00;97955.25;5114035;27;20091;-79
2022/10/01 02:17:53;;;;;;;15.00;6.75;;;;;;;12.62;100.00;97939.75;5097528;27;20095;-79
2022/10/01 02:20:45;;;;;;;10.00;5.90;;;;;;;12.62;100.00;97963.03;5114019;27;20106;-79
2022/10/01 02:23:14;;;;;;;9.90;6.53;;;;;;;12.57;100.00;97965.16;5089223;27;20501;-79
2022/10/01 02:25:47;;;;;;;20.98;7.13;;;;;;;12.59;100.00;97968.59;5096993;27;20500;-80
2022/10/01 02:28:14;;;;;;;;;;;;;;;12.48;100.00;97966.59;5097300;27;20027;-79
2022/10/01 02:30:40;;;;;;;14.48;7.05;;;;;;;12.44;100.00;97970.41;5114103;27;19915;-79
2022/10/01 02:33:08;;;;;;;13.15;6.47;;;;;;;12.45;100.00;97975.72;5113989;27;20026;-79
2022/10/01 02:35:35;;;;;;;14.20;6.68;;;;;;;12.43;100.00;97976.72;5114148;27;20042;-79
2022/10/01 02:38:04;;;;;;;12.55;6.13;;;;;;;12.44;100.00;97982.03;5113965;27;20095;-79
2022/10/01 02:40:31;;;;;;;13.10;5.72;;;;;;;12.38;100.00;97977.03;5114048;27;20092;-80
2022/10/01 02:43:10;;;;;;;9.70;6.00;;;;;;;12.37;100.00;97977.13;5114046;27;20030;-80
2022/10/01 02:45:37;;;;;;;9.25;6.00;;;;;;;12.38;100.00;97981.53;5096997;27;20031;-79
2022/10/01 02:48:05;;;;;;;14.35;6.35;;;;;;;12.31;100.00;97983.72;5132352;27;20030;-80
2022/10/01 02:50:47;;;;;;;13.18;6.65;;;;;;;12.36;100.00;98005.78;5113825;27;20038;-79
2022/10/01 02:53:19;;;;;;;8.15;5.50;;;;;;;12.34;100.00;97994.28;5096855;27;20031;-79
2022/10/01 02:55:46;;;;;;;16.92;9.00;;;;;;;12.42;100.00;98016.16;5113792;27;20083;-81
2022/10/01 02:58:11;;;;;;;20.05;9.25;;;;;;;12.43;100.00;98017.84;5114655;27;20047;-81
2022/10/01 03:00:37;;;;;;;15.45;8.88;;;;;;;12.45;100.00;98015.09;5113752;28;20498;-80
2022/10/01 03:03:02;;;;;;;14.35;7.57;;;;;;;12.46;100.00;98016.78;5096754;27;20049;-80
2022/10/01 03:05:28;;;;;;;17.92;7.35;;;;;;;12.44;100.00;98003.50;5113408;28;20406;-79
2022/10/01 03:07:54;;;;;;;12.18;7.05;;;;;;;12.41;100.00;98000.13;5096600;28;20482;-80
2022/10/01 03:10:19;;;;;;;14.48;6.05;;;;;;;12.36;100.00;97988.81;5096416;28;20551;-79
2022/10/01 03:12:45;;;;;;;13.30;6.35;;;;;;;12.29;100.00;97974.94;5113742;28;20026;-80
2022/10/01 03:15:12;;;;;;;13.48;6.95;;;;;;;12.24;100.00;97974.34;5096061;28;20031;-80
2022/10/01 03:17:37;;;;;;;9.05;6.32;;;;;;;12.23;100.00;97987.84;5113583;28;20055;-79
2022/10/01 03:20:04;;;;;;;14.10;6.70;;;;;;;12.26;100.00;97999.25;5113521;28;20505;-80
2022/10/01 03:22:30;;;;;;;10.45;6.50;;;;;;;12.25;100.00;97991.28;5096265;28;20037;-80
2022/10/01 03:24:56;;;;;;;10.57;6.90;;;;;;;12.34;100.00;98013.06;5096491;28;20533;-80
2022/10/01 03:27:22;;;;;;;15.25;6.25;;;;;;;12.35;100.00;98004.06;5096346;28;20418;-80
2022/10/01 03:29:48;;;;;;;13.48;6.20;;;;;;;12.52;100.00;98012.88;5113257;28;20047;-81
2022/10/01 03:32:14;;;;;;;9.90;6.30;;;;;;;12.52;100.00;97994.94;5113357;28;20130;-81
2022/10/01 03:34:40;;;;;;;24.33;6.20;;;;;;;12.55;100.00;97991.22;5096126;28;20433;-81
2022/10/01 03:37:06;;;;;;;13.05;6.57;;;;;;;12.57;100.00;97987.47;5096267;28;20030;-81
2022/10/01 03:39:31;;;;;;;12.65;6.88;;;;;;;12.61;100.00;97993.53;5113363;28;20031;-80
2022/10/01 03:41:57;;;;;;;15.32;6.53;;;;;;;12.66;100.00;97997.63;5096590;28;20034;-80
2022/10/01 03:44:23;;;;;;;10.93;7.55;;;;;;;12.65;100.00;97997.72;5113517;28;20079;-80
2022/10/01 03:46:48;;;;;;;9.32;5.82;;;;;;;12.74;100.00;97994.44;5113456;28;20027;-80
2022/10/01 03:49:14;;;;;;;9.80;6.45;;;;;;;12.79;100.00;98003.09;5096272;28;20031;-81
2022/10/01 03:51:40;;;;;;;11.98;6.18;;;;;;;12.86;100.00;97999.91;5096393;28;20030;-80
2022/10/01 03:54:06;;;;;;;8.90;6.00;;;;;;;12.86;100.00;97999.03;5113349;28;20027;-80
2022/10/01 03:56:33;;;;;;;15.82;5.95;;;;;;;12.97;100.00;98012.66;5096153;28;20037;-80
2022/10/01 03:58:58;;;;;;;10.48;5.88;;;;;;;12.94;100.00;98004.81;5095958;28;20128;-80
2022/10/01 04:01:24;;;;;;;11.02;6.15;;;;;;;12.92;100.00;97996.84;5096029;28;20050;-80
2022/10/01 04:03:51;;;;;;;9.85;6.07;;;;;;;12.97;100.00;97991.19;5113149;28;20023;-80
2022/10/01 04:06:17;;;;;;;14.45;6.72;;;;;;;12.95;100.00;97991.25;5096300;28;20486;-79
2022/10/01 04:08:42;;;;;;;13.98;6.45;;;;;;;12.95;100.00;97971.63;5113010;28;20037;-80
2022/10/01 04:11:08;;;;;;;14.20;7.03;;;;;;;12.93;100.00;97973.53;5096112;28;20092;-81
2022/10/01 04:13:34;;;;;;;12.85;6.30;;;;;;;12.92;100.00;97974.50;5113192;28;20027;-81
2022/10/01 04:16:01;;;;;;;12.30;6.90;;;;;;;12.88;100.00;97983.72;5113219;28;20569;-81
2022/10/01 04:18:26;;;;;;;38.60;13.45;;;;;;;12.83;100.00;97975.94;5113280;28;20023;-81
2022/10/01 04:20:52;;;;;;;20.45;9.95;;;;;;;12.80;100.00;97967.22;5095850;28;20496;-81
2022/10/01 04:23:17;;;;;;;18.13;7.97;;;;;;;12.81;100.00;97964.44;5113445;28;20023;-82
2022/10/01 04:25:43;;;;;;;19.52;9.35;;;;;;;12.82;100.00;97970.69;5113876;27;20026;-82
2022/10/01 04:28:11;;;;;;;19.35;7.85;;;;;;;12.83;100.00;97956.28;5099278;27;20399;-80
2022/10/01 04:30:39;;;;;;;22.92;10.68;;;;;;;12.80;100.00;97941.25;5116131;27;20062;-79
2022/10/01 04:33:05;;;;;;;22.40;11.80;;;;;;;12.69;100.00;97932.16;5099149;27;20027;-80
2022/10/01 04:35:31;;;;;;;30.70;11.48;;;;;;;12.61;100.00;97934.47;5116274;27;20406;-80
2022/10/01 04:38:02;;;;;;;18.80;11.13;;;;;;;12.55;100.00;97941.06;5116076;27;20047;-80
2022/10/01 04:40:35;;;;;;;19.65;11.13;;;;;;;12.61;100.00;97939.84;5116191;27;20023;-81
2022/10/01 04:43:02;;;;;;;20.10;11.52;;;;;;;12.67;100.00;97951.06;5116026;27;20069;-80
2022/10/01 04:45:28;;;;;;;22.38;10.90;;;;;;;12.76;100.00;97944.22;5115875;27;20042;-81
2022/10/01 04:47:55;;;;;;;17.55;9.60;;;;;;;12.82;100.00;97957.25;5098714;27;20406;-81
2022/10/01 04:50:22;;;;;;;22.40;11.07;;;;;;;12.91;100.00;97954.84;5116305;27;20027;-82
2022/10/01 04:52:49;;;;;;;26.98;13.30;;;;;;;13.09;100.00;97968.94;5098852;27;20034;-80
2022/10/01 04:55:15;;;;;;;22.38;10.63;;;;;;;13.21;100.00;97951.13;5116039;27;20051;-80
2022/10/01 04:57:41;;;;;;;16.70;9.85;;;;;;;13.25;100.00;97931.19;5115737;27;20023;-79
2022/10/01 05:00:09;;;;;;;19.88;8.93;;;;;;;13.32;100.00;97929.81;5098558;27;20088;-81
2022/10/01 05:02:35;;;;;;;15.05;9.20;;;;;;;13.40;100.00;97925.66;5115793;27;20031;-82
2022/10/01 05:05:06;;;;;;;18.08;8.35;;;;;;;13.55;100.00;97926.44;5115856;27;20031;-82
2022/10/01 05:07:33;;;;;;;40.95;17.70;;;;;;;14.02;100.00;97939.31;5115736;27;20474;-82
2022/10/01 05:09:59;;;;;;;20.60;10.05;;;;;;;15.05;100.00;97954.28;5098557;27;20486;-79
2022/10/01 05:12:26;;;;;;;15.88;8.13;;;;;;;16.13;100.00;97951.47;5115495;27;20106;-78
2022/10/01 05:14:52;;;;;;;17.55;9.10;;;;;;;17.04;100.00;97928.81;5115220;27;20027;-80
2022/10/01 05:17:18;;;;;;;13.07;7.50;;;;;;;17.55;99.38;97903.88;5098176;27;20053;-80
2022/10/01 05:19:44;;;;;;;20.92;9.88;;;;;;;18.16;94.89;97878.69;5098601;27;20136;-80
2022/10/01 05:22:11;;;;;;;16.08;7.53;;;;;;;18.43;90.21;97861.84;5098606;27;20030;-80
2022/10/01 05:24:36;;;;;;;12.30;7.22;;;;;;;19.03;87.30;97854.66;5116008;27;20015;-81
2022/10/01 05:27:02;;;;;;;16.80;7.28;;;;;;;19.35;84.43;97825.41;5098197;27;20451;-82
2022/10/01 05:29:28;;;;;;;13.25;7.65;;;;;;;18.71;86.08;97800.66;5133791;27;20046;-81
2022/10/01 05:31:54;;;;;;;14.68;7.72;;;;;;;18.56;88.52;97804.75;5115750;27;20109;-83
2022/10/01 05:34:19;;;;;;;15.38;7.22;;;;;;;19.47;84.27;97818.91;5117004;27;20041;-83
2022/10/01 05:36:45;;;;;;;15.43;7.93;;;;;;;20.86;77.97;97816.19;5099169;27;20478;-81
2022/10/01 05:39:10;;;;;;;14.82;7.63;;;;;;;21.15;75.08;97801.56;5114966;27;20035;-76
2022/10/01 05:41:37;;;;;;;15.50;8.00;;;;;;;22.46;69.84;97789.66;5115162;27;20371;-81
2022/10/01 05:44:02;;;;;;;16.42;8.20;;;;;;;23.34;64.68;97774.59;5115105;27;20067;-82
2022/10/01 05:46:28;;;;;;;12.10;8.05;;;;;;;24.01;61.94;97771.53;5133497;27;20020;-81
2022/10/01 05:48:53;;;;;;;20.25;10.85;;;;;;;24.04;61.41;97759.41;5115121;27;20023;-80
2022/10/01 05:51:19;;;;;;;16.05;8.98;;;;;;;23.85;61.19;97754.31;5115089;27;20045;-81
2022/10/01 05:53:47;;;;;;;19.58;8.73;;;;;;;22.75;64.29;97749.25;5114919;27;20489;-81
2022/10/01 05:56:14;;;;;;;15.32;8.02;;;;;;;21.65;67.26;97745.53;5098187;27;20031;-83
2022/10/01 05:58:40;;;;;;;18.55;7.65;;;;;;;21.49;68.85;97743.53;5114928;27;20027;-81
2022/10/01 06:01:05;;;;;;;20.33;7.68;;;;;;;21.71;69.09;97758.53;5114462;27;20088;-82
2022/10/01 06:03:31;;;;;;;21.30;9.55;;;;;;;21.60;69.20;97754.16;5131565;27;20106;-81
2022/10/01 06:05:57;;;;;;;17.35;9.00;;;;;;;22.26;67.11;97737.25;5097211;27;20023;-80
2022/10/01 06:08:23;;;;;;;25.23;10.50;;;;;;;22.59;65.92;97739.09;5114148;27;20037;-82
2022/10/01 06:10:48;;;;;;;20.33;8.93;;;;;;;23.44;63.31;97721.56;5114241;27;20602;-82
2022/10/01 06:13:17;;;;;;;37.67;19.80;;;;;;;25.28;58.04;97723.84;5114090;27;20046;-83
2022/10/01 06:15:45;;;;;;;15.20;7.68;;;;;;;24.95;56.94;97705.91;5114653;27;20033;-82
2022/10/01 06:18:12;;;;;;;16.08;7.90;;;;;;;23.51;60.63;97691.69;5114370;27;20015;-81
2022/10/01 06:20:38;;;;;;;22.73;10.35;;;;;;;22.29;65.04;97684.28;5097468;27;20087;-81
2022/10/01 06:23:08;;;;;;;18.85;12.82;;;;;;;21.06;69.63;97692.63;5114291;27;20034;-80
2022/10/01 06:25:35;;;;;;;32.92;16.48;;;;;;;20.69;73.19;97683.78;5115239;27;20054;-81
2022/10/01 06:28:01;;;;;;;19.45;10.13;;;;;;;20.18;76.00;97691.66;5097127;27;20030;-80
2022/10/01 06:30:30;;;;;;;19.42;9.68;;;;;;;19.99;78.47;97703.47;5097099;27;20027;-81
2022/10/01 06:33:07;;;;;;;17.55;9.90;;;;;;;20.17;78.88;97714.38;5096971;27;20018;-80
2022/10/01 06:35:34;;;;;;;23.75;10.63;;;;;;;20.05;79.84;97694.72;5096700;27;20120;-81
2022/10/01 06:38:00;;;;;;;24.25;12.95;;;;;;;19.74;82.28;97694.13;5114021;27;20096;-80
2022/10/01 06:40:28;;;;;;;20.92;11.40;;;;;;;19.65;83.93;97715.88;5110300;27;20429;-82
2022/10/01 06:42:57;;;;;;;18.98;10.43;;;;;;;19.51;84.81;97711.75;5114041;27;20034;-81
2022/10/01 06:45:23;;;;;;;20.35;11.85;;;;;;;19.35;85.57;97700.59;5097117;27;20042;-82
2022/10/01 06:47:54;;;;;;;13.27;8.15;;;;;;;19.01;87.58;97691.25;5113647;28;20027;-81
2022/10/01 06:50:20;;;;;;;14.85;9.20;;;;;;;18.62;91.28;97682.25;5112869;27;20038;-82
2022/10/01 06:52:48;;;;;;;16.25;8.98;;;;;;;18.88;91.83;97689.69;5096829;27;20125;-81
2022/10/01 06:55:21;;;;;;;13.65;8.15;;;;;;;19.67;87.72;97714.72;5114262;27;20027;-81
2022/10/01 06:57:49;;;;;;;21.73;9.95;;;;;;;20.25;84.27;97707.19;5113660;28;20474;-82
2022/10/01 07:00:14;;;;;;;19.35;11.50;;;;;;;20.21;84.55;97716.63;5096981;27;20110;-82
2022/10/01 07:02:40;;;;;;;19.63;10.38;;;;;;;21.50;78.23;97728.06;5113395;27;20055;-81
2022/10/01 07:05:07;;;;;;;17.33;9.75;;;;;;;21.69;76.45;97708.78;5113522;27;20023;-82
2022/10/01 07:07:34;;;;;;;17.63;10.32;;;;;;;22.54;73.80;97736.03;5096072;27;20033;-80
2022/10/01 07:10:01;;;;;;;17.17;11.02;;;;;;;24.58;64.44;97711.25;5096300;28;20080;-81
2022/10/01 07:12:28;;;;;;;20.02;11.30;;;;;;;26.16;59.12;97690.31;5113551;28;20076;-81
2022/10/01 07:14:53;;;;;;;16.95;11.52;;;;;;;27.77;53.53;97687.13;5113755;28;20027;-82
2022/10/01 07:17:20;;;;;;;18.48;9.85;;;;;;;28.72;51.35;97673.56;5096017;28;20027;-81
2022/10/01 07:19:45;;;;;;;17.33;9.68;;;;;;;29.41;47.38;97655.75;5112821;28;20031;-81
2022/10/01 07:22:11;;;;;;;15.23;9.25;;;;;;;28.99;46.80;97656.06;5113041;28;20106;-81
2022/10/01 07:24:37;;;;;;;16.02;9.98;;;;;;;27.98;49.22;97648.56;5112936;28;20607;-80
2022/10/01 07:27:03;;;;;;;20.40;9.80;;;;;;;28.60;48.29;97650.41;5113061;28;20023;-81
2022/10/01 07:29:29;;;;;;;18.35;9.90;;;;;;;30.18;45.60;97644.03;5113011;28;20525;-80
2022/10/01 07:32:00;;;;;;;16.02;9.60;;;;;;;31.31;44.19;97651.66;5112712;28;20494;-80
2022/10/01 07:34:27;;;;;;;15.40;9.60;;;;;;;32.25;40.39;97645.97;5113300;28;20083;-81
2022/10/01 07:36:53;;;;;;;18.48;10.10;;;;;;;32.05;40.15;97637.03;5112722;28;20055;-81
2022/10/01 07:39:19;;;;;;;15.55;10.18;;;;;;;31.55;40.68;97650.88;5112966;28;20478;-81
2022/10/01 07:41:45;;;;;;;19.35;11.20;;;;;;;31.99;40.70;97636.00;5129619;28;20064;-80
2022/10/01 07:44:10;;;;;;;13.48;10.75;;;;;;;32.40;39.88;97637.28;5131512;28;20031;-81
2022/10/01 07:46:37;;;;;;;16.45;10.95;;;;;;;32.86;40.08;97648.66;5113059;28;20115;-81
2022/10/01 07:49:03;;;;;;;12.18;9.02;;;;;;;32.91;40.20;97634.97;5112982;28;20027;-80
2022/10/01 07:51:29;;;;;;;11.63;9.35;;;;;;;33.91;39.07;97644.31;5113001;28;20038;-81
2022/10/01 07:53:55;;;;;;;11.07;8.10;;;;;;;30.75;42.90;97601.78;5130845;28;20027;-81
2022/10/01 07:56:21;;;;;;;13.05;8.35;;;;;;;32.60;41.31;97632.38;5112947;28;20025;-81
2022/10/01 07:58:46;;;;;;;17.70;8.80;;;;;;;33.31;39.54;97618.63;5095686;28;20434;-81
2022/10/01 08:01:12;;;;;;;10.45;7.63;;;;;;;33.23;38.86;97613.38;5097851;27;20110;-82
2022/10/01 08:03:37;;;;;;;17.95;8.25;;;;;;;33.35;38.41;97608.72;5099505;27;20084;-82
2022/10/01 08:06:05;;;;;;;10.52;7.68;;;;;;;33.02;38.61;97589.78;5099570;27;20019;-82
2022/10/01 08:08:31;;;;;;;12.73;8.50;;;;;;;32.64;39.89;97592.88;5135236;27;20027;-82
2022/10/01 08:11:00;;;;;;;10.15;7.15;;;;;;;32.33;39.94;97584.75;5116331;27;20027;-81
2022/10/01 08:13:26;;;;;;;10.88;7.07;;;;;;;32.08;40.61;97579.28;5099395;27;20102;-82
2022/10/01 08:15:55;;;;;;;17.02;7.80;;;;;;;31.58;41.62;97577.63;5099781;27;20038;-81
2022/10/01 08:18:21;;;;;;;12.70;6.93;;;;;;;30.49;43.43;97572.38;5117134;27;20397;-82
2022/10/01 08:20:47;;;;;;;10.88;7.40;;;;;;;29.65;46.07;97574.31;5082173;27;20455;-81
2022/10/01 08:23:14;;;;;;;13.18;7.35;;;;;;;28.88;47.93;97572.16;5098635;27;20091;-82
2022/10/01 08:25:41;;;;;;;11.73;7.85;;;;;;;28.27;49.21;97576.78;5116174;27;20088;-82
2022/10/01 08:28:07;;;;;;;16.63;8.05;;;;;;;28.08;51.22;97585.81;5099013;27;20475;-82
2022/10/01 08:30:35;;;;;;;11.95;8.65;;;;;;;27.98;50.35;97568.81;5099442;27;20031;-82
2022/10/01 08:33:01;;;;;;;17.10;8.40;;;;;;;27.28;52.46;97582.69;5116264;27;20080;-82
2022/10/01 08:35:29;;;;;;;10.82;7.95;;;;;;;26.90;54.54;97579.38;5116612;27;20027;-81
2022/10/01 08:37:55;;;;;;;11.88;7.22;;;;;;;26.17;56.87;97596.03;5133104;27;20497;-81
2022/10/01 08:40:21;;;;;;;10.85;7.05;;;;;;;25.99;57.64;97601.91;5099118;27;20051;-81
2022/10/01 08:42:54;;;;;;;16.80;6.43;;;;;;;25.88;57.91;97608.69;5099251;27;20412;-82
2022/10/01 08:45:34;;;;;;;19.27;8.90;;;;;;;25.96;59.32;97613.25;5116157;27;20066;-82
2022/10/01 08:48:35;;;;;;;13.55;8.35;;;;;;;25.77;61.29;97624.78;5116247;27;20106;-81
2022/10/01 08:51:07;;;;;;;12.38;6.68;;;;;;;25.75;59.13;97626.81;5072744;27;20035;-82
2022/10/01 08:53:34;;;;;;;15.57;6.78;;;;;;;25.82;59.47;97633.25;5098769;27;20411;-81
2022/10/01 08:56:00;;;;;;;14.55;6.65;;;;;;;25.89;60.02;97628.75;5098551;27;20092;-81
2022/10/01 08:58:39;;;;;;;10.43;4.75;;;;;;;25.78;56.64;97607.25;5115909;27;20094;-82
2022/10/01 09:01:05;;;;;;;9.75;3.15;;;;;;;25.85;52.23;97600.00;5115828;27;20486;-82
2022/10/01 09:03:31;;;;;;;5.63;3.45;;;;;;;25.99;52.51;97595.56;5116079;27;20030;-81
2022/10/01 09:06:13;;;;;;;10.13;3.03;;;;;;;26.19;51.54;97594.81;5098500;27;20059;-81
2022/10/01 09:09:03;;;;;;;9.02;3.13;;;;;;;26.31;51.51;97584.19;5134808;27;20031;-82
2022/10/01 09:11:50;;;;;;;8.02;3.17;;;;;;;26.39;50.33;97582.16;5133761;27;20031;-82
2022/10/01 09:14:28;;;;;;;2.83;1.98;;;;;;;26.45;48.52;97576.97;5114882;27;20030;-82
2022/10/01 09:17:06;;;;;;;7.35;2.22;;;;;;;26.46;48.88;97581.38;5134078;27;20607;-81
2022/10/01 09:19:53;;;;;;;5.75;2.25;;;;;;;26.40;48.55;97589.34;5134117;27;20432;-82
2022/10/01 09:22:26;;;;;;;9.70;2.40;;;;;;;26.45;48.79;97588.78;5115692;27;20034;-83
2022/10/01 09:24:52;;;;;;;12.27;2.13;;;;;;;26.47;49.08;97594.06;5115083;27;20031;-82
2022/10/01 09:27:24;;;;;;;7.97;1.90;;;;;;;26.47;48.68;97589.44;5132215;27;20363;-82
2022/10/01 09:30:04;;;;;;;7.15;2.33;;;;;;;26.35;49.54;97596.47;5115301;27;20039;-82
2022/10/01 09:32:33;;;;;;;3.17;1.83;;;;;;;26.39;48.86;97595.88;5098282;27;20038;-82
2022/10/01 09:35:04;;;;;;;3.60;1.65;;;;;;;26.41;49.33;97595.72;5115431;27;20371;-82
2022/10/01 09:38:08;;;;;;;4.55;2.28;;;;;;;26.43;49.17;97590.88;5128410;27;20050;-82
2022/10/01 09:40:41;;;;;;;3.90;1.65;;;;;;;26.31;49.19;97587.78;5106235;27;20032;-82
2022/10/01 09:43:08;;;;;;;5.45;2.25;;;;;;;26.30;49.04;97587.97;5097892;27;20539;-81
2022/10/01 09:45:36;;;;;;;8.75;1.77;;;;;;;26.27;49.76;97600.16;5115013;27;20026;-82
2022/10/01 09:48:13;;;;;;;7.07;2.03;;;;;;;26.16;49.51;97606.16;5081257;27;20406;-82
2022/10/01 09:50:42;;;;;;;5.65;1.90;;;;;;;26.06;49.36;97601.97;5098102;27;20038;-83
2022/10/01 09:53:17;;;;;;;2.75;1.60;;;;;;;26.10;49.49;97633.47;5115007;27;20478;-82
2022/10/01 09:55:45;;;;;;;2.47;1.80;;;;;;;26.07;49.31;97620.13;5115265;27;20027;-83
2022/10/01 09:58:15;;;;;;;10.20;3.00;;;;;;;25.94;50.08;97626.28;5114895;27;20045;-82
2022/10/01 10:00:41;;;;;;;13.07;2.97;;;;;;;25.87;50.21;97652.75;5115129;27;20027;-82
2022/10/01 10:03:07;;;;;;;4.30;1.60;;;;;;;25.82;50.05;97646.97;5114892;27;20031;-82
2022/10/01 10:05:48;;;;;;;7.32;2.35;;;;;;;25.77;49.80;97638.47;5114941;27;20402;-84
2022/10/01 10:08:20;;;;;;;5.18;1.95;;;;;;;25.54;50.93;97652.22;5115232;27;20031;-84
2022/10/01 10:10:57;;;;;;;3.35;1.98;;;;;;;25.42;51.80;97672.84;5133187;27;20030;-82
2022/10/01 10:13:34;;;;;;;5.53;2.65;;;;;;;25.23;53.45;97698.00;5097839;27;20114;-82
2022/10/01 10:16:09;;;;;;;5.13;1.73;;;;;;;24.72;56.06;97681.22;5115309;27;20022;-82
2022/10/01 10:18:37;;;;;;;5.45;2.17;;;;;;;24.32;57.52;97683.31;5115440;27;20458;-81
2022/10/01 10:21:13;;;;;;;1.88;1.67;;;;;;;24.51;56.61;97675.53;5114770;27;20034;-81
2022/10/01 10:23:54;;;;;;;5.05;2.20;;;;;;;24.56;57.13;97666.78;5097540;27;20050;-81
2022/10/01 10:26:37;;;;;;;4.68;1.90;;;;;;;24.55;57.58;97667.81;5093944;28;20031;-82
2022/10/01 10:29:04;;;;;;;3.00;2.03;;;;;;;24.23;58.02;97644.22;5114093;27;20135;-81
2022/10/01 10:31:44;;;;;;;5.40;2.40;;;;;;;24.32;57.81;97631.34;5097310;27;20030;-82
2022/10/01 10:34:18;;;;;;;3.42;2.30;;;;;;;24.42;57.51;97632.00;5114393;27;20081;-82
2022/10/01 10:36:44;;;;;;;5.95;2.20;;;;;;;24.43;57.79;97628.19;5114270;27;20133;-81
2022/10/01 10:39:23;;;;;;;7.35;3.00;;;;;;;24.48;58.01;97655.88;5114369;27;20399;-81
2022/10/01 10:41:56;;;;;;;5.55;3.55;;;;;;;24.68;57.78;97689.97;5114048;27;20023;-82
2022/10/01 10:44:24;;;;;;;6.03;2.25;;;;;;;24.72;57.22;97689.44;5114884;27;20031;-82
2022/10/01 10:46:50;;;;;;;6.60;2.67;;;;;;;24.80;57.39;97680.31;5097023;27;20038;-82
2022/10/01 10:49:28;;;;;;;6.40;2.80;;;;;;;24.76;58.25;97673.50;5097123;27;20031;-81
2022/10/01 10:51:55;;;;;;;4.13;2.60;;;;;;;24.70;58.83;97652.34;5097608;27;20031;-82
2022/10/01 10:54:28;;;;;;;8.05;2.90;;;;;;;24.63;57.25;97637.69;5097715;27;20062;-82
2022/10/01 10:57:01;;;;;;;9.75;3.58;;;;;;;24.60;56.92;97648.97;5114520;27;20035;-82
2022/10/01 10:59:29;;;;;;;2.83;2.17;;;;;;;24.66;57.21;97642.78;5097270;27;20093;-82
2022/10/01 11:01:55;;;;;;;3.25;1.85;;;;;;;24.67;57.28;97655.44;5114399;27;20489;-82
2022/10/01 11:04:41;;;;;;;5.07;2.03;;;;;;;24.67;57.89;97664.47;5114001;27;20023;-82
2022/10/01 11:07:08;;;;;;;4.43;1.90;;;;;;;24.66;57.85;97672.88;5113494;27;20031;-82
2022/10/01 11:09:52;;;;;;;18.10;3.47;;;;;;;24.60;58.70;97673.59;5114157;27;20073;-81
2022/10/01 11:12:24;;;;;;;3.95;1.63;;;;;;;24.55;59.55;97673.31;5113844;28;20068;-82
2022/10/01 11:15:10;;;;;;;3.63;1.80;;;;;;;24.59;59.78;97666.41;5113558;28;20018;-82
2022/10/01 11:17:54;;;;;;;3.95;2.47;;;;;;;24.55;60.15;97670.56;5097109;28;20070;-82
2022/10/01 11:20:53;;;;;;;3.47;2.15;;;;;;;24.53;60.46;97651.56;5096266;28;20562;-82
2022/10/01 11:23:46;;;;;;;3.22;2.05;;;;;;;24.37;61.21;97656.28;5131871;28;20463;-81
2022/10/01 11:26:39;;;;;;;6.82;1.60;;;;;;;24.27;61.67;97646.41;5111365;28;20034;-81
2022/10/01 11:29:33;;;;;;;4.07;1.80;;;;;;;24.45;61.53;97650.78;5096249;28;20035;-82
2022/10/01 11:32:25;;;;;;;5.43;2.78;;;;;;;24.61;60.23;97624.16;5131104;28;20027;-82
2022/10/01 11:35:20;;;;;;;6.55;3.08;;;;;;;24.69;59.90;97623.28;5110806;27;20562;-82
2022/10/01 11:38:14;;;;;;;5.32;2.50;;;;;;;24.65;59.95;97632.88;5118124;27;20031;-82